Terminal Aerodrome Forecast
Issued by NWS

Home | Current Version | Previous Version | Text Only | Print | Product List | Glossary On
Versions: 1 2 3 4 5 6 7 8 9 10 11 12 13 14 15 16 17
000
FTAK31 PANC 012332 AAA
TAFADU
TAF AMD
PADU 012332Z 0200/0224 27007KT P6SM BKN035
     FM021200 14007KT P6SM -RA SCT025 OVC040
     FM021800 14011KT 6SM -RA BR SCT015 OVC025
      AMD NOT SKED=

USA.gov is the U.S. government's official web portal to all federal, state and local government web resources and services.